createdAt,value
2023-05-09T00:00:09.913Z,24.85
2023-05-09T00:01:09.944Z,24.54
2023-05-09T00:02:10.027Z,25.18
2023-05-09T00:03:09.979Z,25.48
2023-05-09T00:04:10.005Z,24.71
2023-05-09T00:05:09.987Z,24.76
2023-05-09T00:06:09.970Z,26.81
2023-05-09T00:07:10.067Z,26.03
2023-05-09T00:08:10.000Z,23.96
2023-05-09T00:09:09.973Z,25.75
2023-05-09T00:10:09.979Z,25.76
2023-05-09T00:11:09.980Z,24.84
2023-05-09T00:12:09.995Z,24.82
2023-05-09T00:13:10.006Z,26.27
2023-05-09T00:14:10.029Z,25.84
2023-05-09T00:15:10.076Z,27.81
2023-05-09T00:16:10.023Z,24.63
2023-05-09T00:17:09.996Z,27.17
2023-05-09T00:18:09.988Z,26.11
2023-05-09T00:19:10.007Z,26.45
2023-05-09T00:20:10.025Z,25.28
2023-05-09T00:21:10.015Z,25.71
2023-05-09T00:22:09.993Z,26.86
2023-05-09T00:23:10.063Z,25.12
2023-05-09T00:24:09.999Z,27.18
2023-05-09T00:25:10.057Z,27.11
2023-05-09T00:26:10.010Z,26.72
2023-05-09T00:27:09.997Z,26.47
2023-05-09T00:28:09.992Z,26.29
2023-05-09T00:29:09.974Z,25.15
2023-05-09T00:30:10.012Z,26.23
2023-05-09T00:31:10.003Z,25.81
2023-05-09T00:32:10.052Z,27.41
2023-05-09T00:33:10.027Z,27.87
2023-05-09T00:34:09.990Z,26.02
2023-05-09T00:35:10.175Z,26.46
2023-05-09T00:36:10.008Z,28.18
2023-05-09T00:37:10.012Z,27.96
2023-05-09T00:38:10.029Z,27.99
2023-05-09T00:39:10.107Z,27.19
2023-05-09T00:40:10.043Z,26.54
2023-05-09T00:41:10.058Z,27.59
2023-05-09T00:42:10.088Z,28.05
2023-05-09T00:43:10.087Z,26.37
2023-05-09T00:44:10.095Z,26.55
2023-05-09T00:45:10.121Z,25.48
2023-05-09T00:46:10.168Z,28.38
2023-05-09T00:47:10.134Z,28.33
2023-05-09T00:48:10.174Z,28.22
2023-05-09T00:49:10.170Z,25.91
2023-05-09T00:50:10.179Z,25.92
2023-05-09T00:51:10.183Z,27.93
2023-05-09T00:52:10.204Z,28.01
2023-05-09T00:53:10.223Z,26.58
2023-05-09T00:54:10.254Z,27.51
2023-05-09T00:55:10.330Z,27.84
2023-05-09T00:56:10.261Z,28.87
2023-05-09T00:57:10.283Z,27.08
2023-05-09T00:58:10.275Z,28.10
2023-05-09T00:59:10.305Z,27.93
2023-05-09T01:00:10.325Z,25.83
2023-05-09T01:01:10.404Z,27.79
2023-05-09T01:02:10.322Z,27.68
2023-05-09T01:03:10.429Z,27.89
2023-05-09T01:04:10.349Z,28.33
2023-05-09T01:05:10.371Z,27.36
2023-05-09T01:06:10.480Z,26.99
2023-05-09T01:07:10.391Z,26.68
2023-05-09T01:08:10.416Z,27.99
2023-05-09T01:09:10.431Z,27.40
2023-05-09T01:10:10.443Z,27.70
2023-05-09T01:11:10.551Z,27.96
2023-05-09T01:12:10.478Z,26.23
2023-05-09T01:13:10.607Z,26.65
2023-05-09T01:14:10.534Z,26.79
2023-05-09T01:15:10.550Z,26.78
2023-05-09T01:16:10.592Z,28.39
2023-05-09T01:17:10.592Z,26.63
2023-05-09T01:18:10.614Z,26.80
2023-05-09T01:19:10.635Z,28.27
2023-05-09T01:20:10.628Z,28.11
2023-05-09T01:21:10.652Z,29.23
2023-05-09T01:22:10.654Z,28.72
2023-05-09T01:23:10.668Z,28.03
2023-05-09T01:24:10.707Z,28.17
2023-05-09T01:25:10.693Z,27.73
2023-05-09T01:26:10.718Z,28.79
2023-05-09T01:27:10.802Z,28.52
2023-05-09T01:28:10.737Z,26.80
2023-05-09T01:29:10.764Z,27.71
2023-05-09T01:30:10.756Z,27.12
2023-05-09T01:31:10.801Z,26.94
2023-05-09T01:32:10.793Z,26.96
2023-05-09T01:33:10.843Z,28.31
2023-05-09T01:34:10.849Z,26.64
2023-05-09T01:35:10.866Z,24.79
2023-05-09T01:36:10.886Z,23.10
2023-05-09T01:37:10.920Z,22.49
2023-05-09T01:38:10.928Z,22.26
2023-05-09T01:39:10.940Z,23.87
2023-05-09T01:40:10.978Z,22.55
2023-05-09T01:41:11.006Z,23.25
2023-05-09T01:42:11.005Z,24.16
2023-05-09T01:43:11.110Z,25.91
2023-05-09T01:44:11.118Z,26.52
2023-05-09T01:45:11.089Z,24.99
2023-05-09T01:46:11.121Z,25.56
2023-05-09T01:47:11.147Z,24.96
2023-05-09T01:48:11.169Z,25.55
2023-05-09T01:49:11.181Z,25.82
2023-05-09T01:50:11.222Z,26.02
2023-05-09T01:51:11.232Z,26.04
2023-05-09T01:52:11.279Z,25.45
2023-05-09T01:53:11.272Z,26.58
2023-05-09T01:54:11.271Z,23.28
2023-05-09T01:55:11.308Z,24.21
2023-05-09T01:56:11.322Z,25.24
2023-05-09T01:57:11.366Z,24.67
2023-05-09T01:58:11.373Z,24.61
2023-05-09T01:59:11.472Z,23.76
2023-05-09T02:00:11.423Z,24.04
2023-05-09T02:01:11.496Z,23.26
2023-05-09T02:02:11.499Z,23.81
2023-05-09T02:03:11.505Z,25.54
2023-05-09T02:04:11.498Z,26.41
2023-05-09T02:05:11.683Z,24.82
2023-05-09T02:06:11.524Z,26.90
2023-05-09T02:07:11.580Z,25.88
2023-05-09T02:08:11.584Z,25.31
2023-05-09T02:09:11.586Z,26.04
2023-05-09T02:10:11.627Z,26.81
2023-05-09T02:11:11.636Z,26.98
2023-05-09T02:12:11.635Z,25.71
2023-05-09T02:13:11.690Z,27.03
2023-05-09T02:14:11.690Z,27.06
2023-05-09T02:15:11.973Z,27.67
2023-05-09T02:16:11.728Z,27.09
2023-05-09T02:17:11.698Z,26.83
2023-05-09T02:18:11.711Z,27.89
2023-05-09T02:19:11.730Z,28.08
2023-05-09T02:20:11.739Z,26.34
2023-05-09T02:21:11.909Z,26.65
2023-05-09T02:22:11.762Z,28.83
2023-05-09T02:23:11.781Z,28.16
2023-05-09T02:24:11.790Z,27.37
2023-05-09T02:25:12.010Z,27.39
2023-05-09T02:26:11.821Z,27.00
2023-05-09T02:27:11.841Z,27.71
2023-05-09T02:28:11.887Z,27.99
2023-05-09T02:29:11.883Z,28.00
2023-05-09T02:30:11.933Z,26.86
2023-05-09T02:31:11.976Z,28.55
2023-05-09T02:32:11.948Z,27.93
2023-05-09T02:33:11.978Z,27.50
2023-05-09T02:34:11.941Z,27.91
2023-05-09T02:35:12.020Z,27.97
2023-05-09T02:36:11.974Z,28.39
2023-05-09T02:37:11.997Z,27.41
2023-05-09T02:38:12.010Z,27.54
2023-05-09T02:39:12.010Z,27.37
2023-05-09T02:40:12.032Z,26.80
2023-05-09T02:41:12.040Z,26.85
2023-05-09T02:42:12.105Z,25.81
2023-05-09T02:43:12.093Z,27.24
2023-05-09T02:44:12.114Z,27.49
2023-05-09T02:45:12.230Z,28.08
2023-05-09T02:46:12.166Z,26.67
2023-05-09T02:47:12.219Z,26.84
2023-05-09T02:48:12.180Z,26.33
2023-05-09T02:49:22.807Z,28.69
2023-05-09T02:50:13.184Z,27.04
2023-05-09T02:51:12.156Z,27.38
2023-05-09T02:52:12.150Z,27.86
2023-05-09T02:53:12.167Z,26.80
2023-05-09T02:54:12.134Z,27.24
2023-05-09T02:55:12.320Z,26.54
2023-05-09T02:56:12.115Z,28.45
2023-05-09T02:57:12.112Z,27.60
2023-05-09T02:58:14.842Z,26.15
2023-05-09T02:59:12.091Z,28.08
2023-05-09T03:00:12.092Z,27.27
2023-05-09T03:01:12.083Z,29.33
2023-05-09T03:02:12.085Z,28.45
2023-05-09T03:03:12.266Z,27.35
2023-05-09T03:04:12.080Z,28.85
2023-05-09T03:05:12.094Z,28.46
2023-05-09T03:06:12.067Z,29.12
2023-05-09T03:07:12.050Z,28.41
2023-05-09T03:08:12.048Z,27.34
2023-05-09T03:09:12.032Z,26.88
2023-05-09T03:10:12.019Z,27.07
2023-05-09T03:11:12.006Z,27.83
2023-05-09T03:12:12.021Z,27.41
2023-05-09T03:13:12.042Z,27.46
2023-05-09T03:14:12.003Z,27.17
2023-05-09T03:15:12.156Z,27.97
2023-05-09T03:16:12.026Z,27.52
2023-05-09T03:17:11.968Z,28.60
2023-05-09T03:18:12.020Z,28.07
2023-05-09T03:19:12.035Z,28.48
2023-05-09T03:20:11.937Z,27.68
2023-05-09T03:21:11.944Z,28.30
2023-05-09T03:22:11.947Z,28.38
2023-05-09T03:23:11.938Z,28.02
2023-05-09T03:24:11.926Z,28.38
2023-05-09T03:25:11.984Z,28.53
2023-05-09T03:26:11.908Z,28.60
2023-05-09T03:27:11.894Z,29.09
2023-05-09T03:28:11.887Z,27.96
2023-05-09T03:29:11.877Z,28.52
2023-05-09T03:30:11.878Z,28.41
2023-05-09T03:31:11.968Z,28.60
2023-05-09T03:32:13.392Z,27.59
2023-05-09T03:33:11.859Z,29.26
2023-05-09T03:34:11.856Z,27.27
2023-05-09T03:35:11.966Z,28.85
2023-05-09T03:36:11.840Z,27.00
2023-05-09T03:37:11.815Z,28.94
2023-05-09T03:38:11.815Z,29.17
2023-05-09T03:39:11.812Z,28.48
2023-05-09T03:40:11.796Z,28.77
2023-05-09T03:41:11.788Z,27.02
2023-05-09T03:42:11.769Z,28.18
2023-05-09T03:43:11.778Z,27.03
2023-05-09T03:44:11.780Z,30.19
2023-05-09T03:45:11.823Z,30.34
2023-05-09T03:46:11.777Z,28.22
2023-05-09T03:47:11.769Z,27.83
2023-05-09T03:48:11.791Z,28.42
2023-05-09T03:49:11.737Z,27.70
2023-05-09T03:50:11.738Z,28.08
2023-05-09T03:51:11.809Z,27.57
2023-05-09T03:52:11.713Z,26.86
2023-05-09T03:53:11.718Z,28.32
2023-05-09T03:54:11.696Z,27.51
2023-05-09T03:55:11.721Z,28.65
2023-05-09T03:56:11.698Z,28.44
2023-05-09T03:57:11.699Z,28.27
2023-05-09T03:58:11.690Z,27.53
2023-05-09T03:59:11.669Z,26.23
2023-05-09T04:00:11.655Z,28.80
2023-05-09T04:01:11.644Z,28.30
2023-05-09T04:02:11.677Z,27.81
2023-05-09T04:03:11.702Z,27.13
2023-05-09T04:04:11.710Z,28.48
2023-05-09T04:05:11.683Z,28.75
2023-05-09T04:06:11.612Z,28.10
2023-05-09T04:07:11.693Z,28.28
2023-05-09T04:08:11.602Z,27.86
2023-05-09T04:09:11.603Z,29.13
2023-05-09T04:10:11.615Z,28.12
2023-05-09T04:11:11.594Z,27.36
2023-05-09T04:12:11.600Z,28.12
2023-05-09T04:13:11.639Z,27.32
2023-05-09T04:14:11.552Z,27.97
2023-05-09T04:15:11.688Z,27.99
2023-05-09T04:16:11.562Z,28.64
2023-05-09T04:17:11.543Z,27.76
2023-05-09T04:18:11.545Z,27.07
2023-05-09T04:19:11.514Z,27.90
2023-05-09T04:20:11.526Z,26.91
2023-05-09T04:21:11.505Z,27.08
2023-05-09T04:22:11.559Z,26.57
2023-05-09T04:23:11.576Z,28.10
2023-05-09T04:24:11.487Z,26.65
2023-05-09T04:25:11.476Z,27.10
2023-05-09T04:26:11.467Z,26.06
2023-05-09T04:27:11.456Z,28.23
2023-05-09T04:28:11.472Z,28.20
2023-05-09T04:29:11.458Z,28.21
2023-05-09T04:30:11.475Z,27.69
2023-05-09T04:31:11.492Z,28.69
2023-05-09T04:32:11.462Z,26.55
2023-05-09T04:33:11.424Z,27.23
2023-05-09T04:34:11.418Z,26.17
2023-05-09T04:35:11.429Z,26.46
2023-05-09T04:36:11.415Z,25.79
2023-05-09T04:37:11.394Z,27.38
2023-05-09T04:38:11.399Z,27.78
2023-05-09T04:39:11.481Z,27.21
2023-05-09T04:40:11.377Z,27.70
2023-05-09T04:41:11.397Z,26.65
2023-05-09T04:42:11.378Z,27.13
2023-05-09T04:43:11.380Z,25.78
2023-05-09T04:44:11.338Z,26.19
2023-05-09T04:45:11.391Z,26.63
2023-05-09T04:46:11.374Z,26.96
2023-05-09T04:47:11.324Z,26.85
2023-05-09T04:48:11.322Z,25.89
2023-05-09T04:49:11.303Z,26.73
2023-05-09T04:50:11.321Z,25.88
2023-05-09T04:51:11.321Z,25.93
2023-05-09T04:52:11.295Z,26.15
2023-05-09T04:53:11.290Z,26.89
2023-05-09T04:54:11.291Z,25.89
2023-05-09T04:55:11.344Z,26.37
2023-05-09T04:56:11.254Z,27.45
2023-05-09T04:57:17.867Z,26.32
2023-05-09T04:58:12.259Z,27.63
2023-05-09T04:59:11.255Z,29.31
2023-05-09T05:00:11.248Z,30.86
2023-05-09T05:01:11.244Z,28.56
2023-05-09T05:02:11.217Z,29.39
2023-05-09T05:03:11.265Z,30.50
2023-05-09T05:04:11.256Z,29.41
2023-05-09T05:05:13.362Z,29.88
2023-05-09T05:06:11.191Z,30.76
2023-05-09T05:07:11.198Z,33.88
2023-05-09T05:08:11.191Z,37.16
2023-05-09T05:09:11.189Z,37.15
2023-05-09T05:10:11.162Z,35.55
2023-05-09T05:11:11.236Z,38.07
2023-05-09T05:12:11.141Z,33.80
2023-05-09T05:13:11.196Z,32.63
2023-05-09T05:14:11.174Z,30.31
2023-05-09T05:15:11.138Z,30.23
2023-05-09T05:16:11.167Z,30.33
2023-05-09T05:17:11.102Z,28.14
2023-05-09T05:18:11.124Z,28.36
2023-05-09T05:19:11.180Z,28.32
2023-05-09T05:20:11.264Z,29.90
2023-05-09T05:21:11.286Z,28.82
2023-05-09T05:22:11.358Z,29.35
2023-05-09T05:23:11.393Z,28.39
2023-05-09T05:24:11.475Z,30.23
2023-05-09T05:25:11.490Z,30.24
2023-05-09T05:26:11.556Z,28.96
2023-05-09T05:27:11.650Z,30.49
2023-05-09T05:28:11.636Z,29.21
2023-05-09T05:29:11.707Z,29.08
2023-05-09T05:30:11.661Z,30.55
2023-05-09T05:31:11.762Z,30.49
2023-05-09T05:32:11.812Z,30.32
2023-05-09T05:33:11.865Z,29.08
2023-05-09T05:34:12.503Z,28.94
2023-05-09T05:35:12.124Z,29.02
2023-05-09T05:36:12.043Z,31.07
2023-05-09T05:37:12.129Z,29.01
2023-05-09T05:38:12.258Z,27.35
2023-05-09T05:39:12.215Z,28.84
2023-05-09T05:40:12.257Z,28.40
2023-05-09T05:41:12.388Z,27.43
2023-05-09T05:42:12.432Z,28.54
2023-05-09T05:43:12.517Z,30.52
2023-05-09T05:44:12.738Z,28.77
2023-05-09T05:45:12.649Z,29.51
2023-05-09T05:46:12.633Z,29.36
2023-05-09T05:47:12.592Z,28.31
2023-05-09T05:48:13.200Z,29.57
2023-05-09T05:49:12.690Z,28.53
2023-05-09T05:50:12.679Z,29.28
2023-05-09T05:51:12.745Z,27.30
2023-05-09T05:52:12.766Z,26.02
2023-05-09T05:53:12.812Z,29.17
2023-05-09T05:54:12.862Z,28.42
2023-05-09T05:55:13.046Z,29.86
2023-05-09T05:56:12.926Z,28.27
2023-05-09T05:57:12.973Z,27.68
2023-05-09T05:58:12.999Z,29.00
2023-05-09T05:59:13.664Z,29.19
2023-05-09T06:00:13.101Z,29.74
2023-05-09T06:01:13.470Z,29.36
2023-05-09T06:02:13.212Z,27.93
2023-05-09T06:03:13.310Z,29.38
2023-05-09T06:04:13.381Z,28.70
2023-05-09T06:05:13.476Z,28.03
2023-05-09T06:06:13.351Z,27.81
2023-05-09T06:07:13.420Z,27.91
2023-05-09T06:08:13.545Z,27.85
2023-05-09T06:09:13.535Z,27.52
2023-05-09T06:10:13.567Z,27.23
2023-05-09T06:11:13.637Z,27.00
2023-05-09T06:12:13.702Z,28.21
2023-05-09T06:13:14.284Z,27.28
2023-05-09T06:14:14.214Z,26.26
2023-05-09T06:15:14.234Z,26.68
2023-05-09T06:16:19.178Z,28.72
2023-05-09T06:17:14.974Z,28.29
2023-05-09T06:18:13.950Z,28.81
2023-05-09T06:19:14.209Z,26.13
2023-05-09T06:20:13.899Z,27.53
2023-05-09T06:21:13.910Z,26.26
2023-05-09T06:22:13.911Z,24.90
2023-05-09T06:23:13.890Z,26.14
2023-05-09T06:24:23.336Z,24.99
2023-05-09T06:25:15.175Z,24.04
2023-05-09T06:26:13.875Z,24.48
2023-05-09T06:27:14.063Z,25.01
2023-05-09T06:28:13.849Z,25.75
2023-05-09T06:29:13.868Z,23.55
2023-05-09T06:30:24.785Z,23.02
2023-05-09T06:31:14.894Z,24.64
2023-05-09T06:32:13.830Z,23.45
2023-05-09T06:33:13.868Z,24.25
2023-05-09T06:34:14.239Z,24.51
2023-05-09T06:35:14.006Z,25.49
2023-05-09T06:36:13.814Z,25.06
2023-05-09T06:37:13.844Z,24.98
2023-05-09T06:38:14.711Z,23.89
2023-05-09T06:39:14.226Z,25.06
2023-05-09T06:40:13.800Z,25.30
2023-05-09T06:41:13.783Z,25.72
2023-05-09T06:42:13.788Z,23.25
2023-05-09T06:43:13.745Z,24.37
2023-05-09T06:44:13.811Z,24.87
2023-05-09T06:45:13.982Z,24.50
2023-05-09T06:46:13.837Z,25.77
2023-05-09T06:47:13.883Z,26.17
2023-05-09T06:48:14.241Z,24.78
2023-05-09T06:49:13.888Z,24.29
2023-05-09T06:50:13.932Z,24.45
2023-05-09T06:51:13.956Z,24.02
2023-05-09T06:52:13.994Z,25.00
2023-05-09T06:53:14.313Z,24.43
2023-05-09T06:54:14.030Z,25.32
2023-05-09T06:55:14.261Z,24.08
2023-05-09T06:56:14.079Z,24.19
2023-05-09T06:57:14.249Z,25.68
2023-05-09T06:58:14.369Z,25.09
2023-05-09T06:59:14.315Z,24.03
2023-05-09T07:00:14.196Z,23.41
2023-05-09T07:01:14.374Z,23.85
2023-05-09T07:02:14.277Z,22.27
2023-05-09T07:03:14.287Z,22.45
2023-05-09T07:04:14.290Z,21.54
2023-05-09T07:05:14.687Z,21.67
2023-05-09T07:06:14.327Z,21.24
2023-05-09T07:07:14.331Z,20.72
2023-05-09T07:08:14.342Z,22.90
2023-05-09T07:09:14.349Z,21.82
2023-05-09T07:10:14.331Z,19.92
2023-05-09T07:11:14.352Z,20.05
2023-05-09T07:12:14.355Z,19.14
2023-05-09T07:13:14.426Z,19.16
2023-05-09T07:14:14.768Z,19.68
2023-05-09T07:15:16.895Z,20.80
2023-05-09T07:16:15.444Z,18.80
2023-05-09T07:17:22.971Z,18.49
2023-05-09T07:18:15.596Z,19.34
2023-05-09T07:19:14.869Z,18.38
2023-05-09T07:20:14.410Z,19.26
2023-05-09T07:21:14.376Z,19.83
2023-05-09T07:22:14.394Z,18.19
2023-05-09T07:23:15.222Z,19.50
2023-05-09T07:24:18.973Z,19.52
2023-05-09T07:25:14.597Z,20.31
2023-05-09T07:26:14.348Z,19.31
2023-05-09T07:27:14.325Z,18.66
2023-05-09T07:28:14.313Z,18.67
2023-05-09T07:29:14.747Z,18.37
2023-05-09T07:30:14.380Z,15.89
2023-05-09T07:31:14.324Z,15.80
2023-05-09T07:32:14.342Z,14.24
2023-05-09T07:33:14.856Z,14.70
2023-05-09T07:34:14.745Z,13.27
2023-05-09T07:35:14.707Z,12.45
2023-05-09T07:36:14.275Z,12.65
2023-05-09T07:37:15.411Z,11.45
2023-05-09T07:38:14.780Z,12.45
2023-05-09T07:39:14.753Z,13.66
2023-05-09T07:40:14.640Z,12.26
2023-05-09T07:41:14.271Z,13.13
2023-05-09T07:42:14.302Z,13.69
2023-05-09T07:43:14.269Z,13.78
2023-05-09T07:44:14.272Z,16.75
2023-05-09T07:45:14.458Z,17.30
2023-05-09T07:46:14.319Z,16.91
2023-05-09T07:47:14.263Z,16.61
2023-05-09T07:48:14.262Z,18.52
2023-05-09T07:49:14.250Z,16.74
2023-05-09T07:50:14.282Z,17.67
2023-05-09T07:51:14.359Z,17.67
2023-05-09T07:52:14.285Z,17.00
2023-05-09T07:53:14.274Z,17.15
2023-05-09T07:54:14.773Z,17.65
2023-05-09T07:55:14.592Z,16.67
2023-05-09T07:56:14.296Z,15.23
2023-05-09T07:57:14.389Z,14.85
2023-05-09T07:58:14.450Z,14.65
2023-05-09T07:59:14.759Z,15.28
2023-05-09T08:00:14.575Z,14.31
2023-05-09T08:01:14.689Z,15.44
2023-05-09T08:02:14.685Z,14.88
2023-05-09T08:03:14.846Z,14.97
2023-05-09T08:04:14.768Z,14.47
2023-05-09T08:05:14.950Z,15.19
2023-05-09T08:06:14.814Z,14.41
2023-05-09T08:07:14.896Z,13.47
2023-05-09T08:08:14.916Z,12.40
2023-05-09T08:09:14.968Z,12.08
2023-05-09T08:10:15.034Z,12.29
2023-05-09T08:11:15.043Z,11.84
2023-05-09T08:12:15.107Z,10.21
2023-05-09T08:13:15.155Z,10.40
2023-05-09T08:14:15.704Z,9.21
2023-05-09T08:15:15.373Z,8.77
2023-05-09T08:16:15.364Z,9.13
2023-05-09T08:17:15.277Z,8.99
2023-05-09T08:18:15.314Z,9.12
2023-05-09T08:19:15.814Z,10.08
2023-05-09T08:20:15.370Z,8.53
2023-05-09T08:21:15.391Z,8.77
2023-05-09T08:22:15.433Z,8.20
2023-05-09T08:23:15.477Z,8.70
2023-05-09T08:24:15.494Z,8.87
2023-05-09T08:25:15.689Z,8.23
2023-05-09T08:26:15.545Z,8.29
2023-05-09T08:27:15.672Z,9.14
2023-05-09T08:28:15.569Z,8.28
2023-05-09T08:29:15.589Z,8.17
2023-05-09T08:30:15.594Z,8.36
2023-05-09T08:31:15.652Z,8.08
2023-05-09T08:32:15.694Z,7.04
2023-05-09T08:33:15.635Z,7.60
2023-05-09T08:34:15.726Z,7.74
2023-05-09T08:35:15.934Z,8.42
2023-05-09T08:36:15.812Z,7.43
2023-05-09T08:37:15.814Z,7.17
2023-05-09T08:38:15.853Z,7.20
2023-05-09T08:39:16.366Z,7.54
2023-05-09T08:40:16.177Z,8.32
2023-05-09T08:41:16.025Z,9.04
2023-05-09T08:42:16.076Z,9.11
2023-05-09T08:43:16.092Z,8.68
2023-05-09T08:44:16.271Z,8.83
2023-05-09T08:45:16.216Z,8.48
2023-05-09T08:46:16.294Z,8.71
2023-05-09T08:47:16.332Z,8.35
2023-05-09T08:48:16.389Z,8.17
2023-05-09T08:49:16.751Z,8.04
2023-05-09T08:50:16.589Z,7.14
2023-05-09T08:51:16.522Z,7.10
2023-05-09T08:52:16.586Z,7.09
2023-05-09T08:53:16.613Z,7.23
2023-05-09T08:54:16.761Z,7.98
2023-05-09T08:55:16.690Z,7.66
2023-05-09T08:56:16.625Z,7.25
2023-05-09T08:57:16.626Z,6.80
2023-05-09T08:58:16.651Z,6.62
2023-05-09T08:59:16.744Z,7.11
2023-05-09T09:00:19.519Z,7.13
2023-05-09T09:01:16.787Z,6.69
2023-05-09T09:02:16.782Z,6.87
2023-05-09T09:03:16.757Z,7.04
2023-05-09T09:04:16.807Z,6.26
2023-05-09T09:05:34.624Z,6.48
2023-05-09T09:06:17.718Z,6.46
2023-05-09T09:07:16.708Z,5.65
2023-05-09T09:08:16.713Z,5.49
2023-05-09T09:09:16.806Z,6.42
2023-05-09T09:10:16.826Z,6.22
2023-05-09T09:11:16.761Z,6.22
2023-05-09T09:12:16.696Z,6.67
2023-05-09T09:13:16.771Z,6.78
2023-05-09T09:14:16.785Z,6.68
2023-05-09T09:15:16.786Z,6.32
2023-05-09T09:16:16.874Z,5.84
2023-05-09T09:17:16.900Z,5.71
2023-05-09T09:18:16.976Z,5.45
2023-05-09T09:19:17.021Z,4.85
2023-05-09T09:20:17.196Z,4.69
2023-05-09T09:21:17.182Z,4.57
2023-05-09T09:22:17.210Z,4.53
2023-05-09T09:23:17.236Z,4.72
2023-05-09T09:24:17.305Z,5.60
2023-05-09T09:25:17.336Z,4.55
2023-05-09T09:26:17.416Z,4.67
2023-05-09T09:27:17.528Z,5.27
2023-05-09T09:28:17.520Z,5.43
2023-05-09T09:29:17.792Z,4.67
2023-05-09T09:30:17.649Z,4.37
2023-05-09T09:31:17.703Z,4.26
2023-05-09T09:32:17.742Z,4.24
2023-05-09T09:33:17.711Z,4.33
2023-05-09T09:34:17.820Z,4.13
2023-05-09T09:35:17.781Z,4.42
2023-05-09T09:36:17.798Z,4.45
2023-05-09T09:37:17.823Z,4.27
2023-05-09T09:38:17.819Z,4.02
2023-05-09T09:39:17.903Z,3.78
2023-05-09T09:40:17.992Z,4.21
2023-05-09T09:41:17.846Z,4.16
2023-05-09T09:42:17.883Z,3.75
2023-05-09T09:43:17.930Z,3.56
2023-05-09T09:44:18.281Z,3.29
2023-05-09T09:45:17.869Z,3.20
2023-05-09T09:46:17.906Z,3.59
2023-05-09T09:47:17.867Z,3.57
2023-05-09T09:48:18.310Z,3.69
2023-05-09T09:49:18.333Z,3.67
2023-05-09T09:50:18.110Z,3.70
2023-05-09T09:51:17.946Z,3.51
2023-05-09T09:52:17.979Z,3.63
2023-05-09T09:53:18.016Z,3.04
2023-05-09T09:54:18.317Z,2.90
2023-05-09T09:55:18.092Z,2.52
2023-05-09T09:56:18.084Z,3.42
2023-05-09T09:57:18.115Z,2.62
2023-05-09T09:58:18.240Z,2.91
2023-05-09T09:59:18.309Z,2.34
2023-05-09T10:00:18.271Z,2.31
2023-05-09T10:01:18.346Z,2.56
2023-05-09T10:02:18.236Z,2.95
2023-05-09T10:03:18.348Z,2.49
2023-05-09T10:04:18.332Z,2.80
2023-05-09T10:05:18.246Z,2.57
2023-05-09T10:06:18.255Z,2.19
2023-05-09T10:07:18.289Z,2.06
2023-05-09T10:08:18.322Z,1.80
2023-05-09T10:09:18.367Z,2.35
2023-05-09T10:10:18.400Z,2.20
2023-05-09T10:11:18.452Z,2.19
2023-05-09T10:12:18.497Z,2.12
2023-05-09T10:13:18.655Z,2.06
2023-05-09T10:14:18.816Z,2.16
2023-05-09T10:15:18.755Z,2.55
2023-05-09T10:16:21.466Z,1.94
2023-05-09T10:17:19.777Z,2.43
2023-05-09T10:18:18.863Z,2.76
2023-05-09T10:19:18.895Z,3.08
2023-05-09T10:20:18.894Z,2.77
2023-05-09T10:21:18.740Z,3.00
2023-05-09T10:22:18.709Z,3.55
2023-05-09T10:23:18.694Z,2.61
2023-05-09T10:24:18.838Z,2.91
2023-05-09T10:25:18.652Z,2.58
2023-05-09T10:26:18.720Z,2.96
2023-05-09T10:27:18.785Z,2.64
2023-05-09T10:28:18.824Z,2.75
2023-05-09T10:29:18.893Z,2.89
2023-05-09T10:30:18.961Z,2.62
2023-05-09T10:31:19.067Z,2.34
2023-05-09T10:32:18.976Z,2.80
2023-05-09T10:33:19.002Z,2.11
2023-05-09T10:34:19.339Z,1.82
2023-05-09T10:35:19.009Z,2.25
2023-05-09T10:36:19.041Z,2.63
2023-05-09T10:37:19.057Z,2.59
2023-05-09T10:38:19.115Z,2.00
2023-05-09T10:39:19.373Z,2.00
2023-05-09T10:40:19.117Z,1.86
2023-05-09T10:41:19.158Z,1.97
2023-05-09T10:42:19.139Z,2.09
2023-05-09T10:43:19.160Z,1.97
2023-05-09T10:44:19.165Z,1.76
2023-05-09T10:45:19.306Z,2.07
2023-05-09T10:46:19.233Z,2.09
2023-05-09T10:47:19.320Z,2.11
2023-05-09T10:48:19.281Z,1.97
2023-05-09T10:49:20.305Z,2.33
2023-05-09T10:50:19.347Z,2.94
2023-05-09T10:51:19.346Z,2.63
2023-05-09T10:52:19.355Z,2.39
2023-05-09T10:53:19.381Z,2.18
2023-05-09T10:54:19.809Z,2.55
2023-05-09T10:55:19.465Z,2.51
2023-05-09T10:56:19.484Z,2.42
2023-05-09T10:57:19.525Z,2.07
2023-05-09T10:58:19.559Z,1.73
2023-05-09T10:59:19.820Z,1.50
2023-05-09T11:00:19.675Z,1.38
2023-05-09T11:01:19.756Z,2.79
2023-05-09T11:02:19.720Z,3.06
2023-05-09T11:03:19.942Z,2.11
2023-05-09T11:04:19.827Z,1.54
2023-05-09T11:05:19.812Z,1.62
2023-05-09T11:06:19.848Z,1.54
2023-05-09T11:07:19.872Z,1.41
2023-05-09T11:08:19.910Z,1.43
2023-05-09T11:09:19.967Z,1.67
2023-05-09T11:10:20.067Z,1.27
2023-05-09T11:11:20.037Z,1.70
2023-05-09T11:12:20.074Z,1.55
2023-05-09T11:13:20.108Z,1.44
2023-05-09T11:14:20.349Z,1.46
2023-05-09T11:15:20.320Z,1.27
2023-05-09T11:16:20.145Z,1.31
2023-05-09T11:17:20.158Z,1.30
2023-05-09T11:18:20.155Z,1.75
2023-05-09T11:19:20.242Z,1.53
2023-05-09T11:20:20.163Z,1.54
2023-05-09T11:21:20.159Z,1.56
2023-05-09T11:22:20.181Z,1.57
2023-05-09T11:23:20.184Z,1.60
2023-05-09T11:24:20.215Z,1.90
2023-05-09T11:25:20.262Z,1.70
2023-05-09T11:26:20.304Z,1.73
2023-05-09T11:27:20.346Z,1.86
2023-05-09T11:28:20.426Z,1.52
2023-05-09T11:29:20.463Z,1.21
2023-05-09T11:30:20.558Z,1.69
2023-05-09T11:31:20.647Z,1.29
2023-05-09T11:32:20.649Z,1.00
2023-05-09T11:33:20.656Z,1.07
2023-05-09T11:34:20.700Z,1.26
2023-05-09T11:35:20.896Z,0.99
2023-05-09T11:36:20.819Z,1.23
2023-05-09T11:37:20.841Z,1.31
2023-05-09T11:38:20.939Z,1.42
2023-05-09T11:39:20.954Z,1.37
2023-05-09T11:40:21.087Z,1.11
2023-05-09T11:41:21.075Z,1.39
2023-05-09T11:42:21.135Z,1.40
2023-05-09T11:43:21.197Z,1.16
2023-05-09T11:44:21.240Z,1.42
2023-05-09T11:45:21.277Z,1.45
2023-05-09T11:46:21.388Z,1.49
2023-05-09T11:47:21.435Z,1.44
2023-05-09T11:48:21.429Z,1.97
2023-05-09T11:49:21.498Z,1.52
2023-05-09T11:50:21.542Z,1.59
2023-05-09T11:51:21.651Z,1.91
2023-05-09T11:52:21.638Z,1.84
2023-05-09T11:53:21.652Z,1.97
2023-05-09T11:54:21.699Z,2.07
2023-05-09T11:55:21.784Z,2.11
2023-05-09T11:56:21.814Z,1.85
2023-05-09T11:57:21.893Z,1.43
2023-05-09T11:58:21.922Z,1.48
2023-05-09T11:59:21.991Z,1.46
2023-05-09T12:00:22.061Z,1.42
2023-05-09T12:01:22.062Z,1.53
2023-05-09T12:02:22.169Z,1.56
2023-05-09T12:03:22.304Z,1.17
2023-05-09T12:04:22.239Z,1.45
2023-05-09T12:05:22.269Z,0.88
2023-05-09T12:06:22.327Z,0.96
2023-05-09T12:07:22.473Z,0.97
2023-05-09T12:08:22.436Z,1.05
2023-05-09T12:09:22.531Z,1.10
2023-05-09T12:10:22.561Z,1.26
2023-05-09T12:11:22.627Z,1.13
2023-05-09T12:12:22.690Z,1.46
2023-05-09T12:13:22.753Z,1.28
2023-05-09T12:14:22.803Z,1.32
2023-05-09T12:15:22.852Z,1.31
2023-05-09T12:16:22.941Z,0.98
2023-05-09T12:17:23.059Z,1.28
2023-05-09T12:18:23.020Z,0.92
2023-05-09T12:19:23.073Z,1.05
2023-05-09T12:20:23.115Z,1.16
2023-05-09T12:21:23.137Z,1.08
2023-05-09T12:22:23.209Z,1.08
2023-05-09T12:23:23.318Z,0.92
2023-05-09T12:24:23.291Z,1.36
2023-05-09T12:25:23.337Z,1.30
2023-05-09T12:26:23.356Z,1.26
2023-05-09T12:27:23.419Z,1.20
2023-05-09T12:28:23.458Z,1.08
2023-05-09T12:29:23.479Z,1.38
2023-05-09T12:30:23.488Z,1.29
2023-05-09T12:31:23.535Z,1.32
2023-05-09T12:32:23.591Z,1.15
2023-05-09T12:33:23.546Z,1.28
2023-05-09T12:34:23.581Z,1.22
2023-05-09T12:35:23.844Z,1.35
2023-05-09T12:36:23.624Z,1.60
2023-05-09T12:37:23.627Z,1.42
2023-05-09T12:38:23.638Z,1.15
2023-05-09T12:39:23.739Z,1.42
2023-05-09T12:40:23.679Z,1.22
2023-05-09T12:41:37.000Z,1.48
2023-05-09T12:42:24.759Z,1.42
2023-05-09T12:43:23.754Z,1.25
2023-05-09T12:44:23.747Z,1.22
2023-05-09T12:45:23.723Z,1.29
2023-05-09T12:46:23.819Z,1.37
2023-05-09T12:47:23.733Z,0.92
2023-05-09T12:48:23.698Z,1.55
2023-05-09T12:49:23.713Z,0.89
2023-05-09T12:50:23.701Z,1.23
2023-05-09T12:51:23.722Z,1.26
2023-05-09T12:52:23.674Z,1.24
2023-05-09T12:53:23.699Z,1.23
2023-05-09T12:54:23.724Z,1.12
2023-05-09T12:55:23.850Z,1.25
2023-05-09T12:56:23.798Z,1.39
2023-05-09T12:57:23.876Z,1.46
2023-05-09T12:58:23.905Z,1.16
2023-05-09T12:59:23.993Z,1.16
2023-05-09T13:00:24.040Z,1.20
2023-05-09T13:01:24.093Z,1.06